Charleston, SC

9:08 PM EST on December 28, 2014 (GMT -0500)
James Island Yacht Club | Change Station
CLOSE
Current Station
Personal Weather Station
Location: Charleston, SC
Elevation: 20 ft
Nearby Weather Stations

Elev 20 ft 32.76 °N, 79.92 °W | Updated 13 minutes ago

Partly Cloudy
Partly Cloudy
63.4 °F
Feels Like 63.4 °F
N
6.0
Wind Variable Wind from SW
Gusts 11.0 mph

Today
High -- | Low -- °F
--% Chance of Precip.
Yesterday
High -- | Low -- °F
Precip. -- in
7:21 AM 5:21 PM
First Quarter, 53% visible
Pressure 30.08 in
Visibility 10.0 miles
Clouds Few 4000 ft
Mostly Cloudy 20000 ft
Dew Point 62 °F
Humidity 96%
Rainfall 0.00 in
Snow Depth Not available.
UV 0 out of 12
Pollen 1.20 out of 12
Air Quality Not available.
Flu Activity Not available.
METAR KCHS 290156Z 21008KT 10SM FEW040 BKN200 17/16 A3008 RMK AO2 SLP184 T01720161

More Conditions Fewer Conditions

Pressure 30.08 in
Visibility 10.0 miles
Clouds Few 4000 ft
Mostly Cloudy 20000 ft
Dew Point 62 °F
Humidity 96%
Rainfall 0.00 in
Snow Depth Not available.
UV 0 out of 12
Pollen 1.20 out of 12
Air Quality Not available.
Flu Activity Not available.
METAR KCHS 290156Z 21008KT 10SM FEW040 BKN200 17/16 A3008 RMK AO2 SLP184 T01720161

More Conditions Fewer Conditions

10-Day Weather Forecast

Almanac

Astronomy

Dec. 28, 2014 Rise Set
Actual Time
Civil Twilight
Nautical Twilight
Astronomical Twilight
Moon
Length of Visible Light
Length of Day
Tomorrow will be .
, % of the Moon is Illuminated

Today's Extremes

State Highs State Lows

Community

WunderPhotos

Upload Photos

1,781,492 photos uploaded!

WunderBlogs® & News

Nearby

Air Quality

  Air Quality AQ Index Pollutant
Not available.

Snow Depth

Station Depth Elevation

Earthquake Activity

City Distance Mag. Time & Date
Minimum magnitude displayed is 2.5.

Coastal Water Temperatures

Place Temperature

Nearby Weather Stations